Humboldt Bay — A8OL4 — position and weather

sailwx.info

Track history (hours):
 
Tides and Currents Weather Stations Pressure Air Temp Water Temp Dewpoint Dewpoint Depression Visibility Wind Speed Wind Dir Waves Ship Positions

Humboldt Bay

Last reported at 2017-Mar-30 00:29 UTC. Time now 2017-Mar-30 01:00 UTC.
Position N 37°07' E 003°37'.

Length 147 m; draft 6.2 m.

Type: Cargo ship. MMSI: 636013649.

Date/timePositionNaut miles runAvg speedWind from/ knotsBaromVisibWave heightAir tempDewpointWater temp
2017-Mar-30 00:29N 37°07' E 003°37'1415.0
2017-Mar-29 23:33N 37°09' E 003°55'1515.0
2017-Mar-29 22:33N 37°11' E 004°13'1915.1
2017-Mar-29 21:19N 37°14' E 004°36'1215.5
2017-Mar-29 20:33N 37°15' E 004°51'1915.6
2017-Mar-29 19:19N 37°20' E 005°15'38714.8
2017-Mar-28 17:13N 36°47' E 013°18'1014.8
2017-Mar-28 16:33N 36°43' E 013°30'1514.7
2017-Mar-28 15:31N 36°39' E 013°48'1515.2
2017-Mar-28 14:33N 36°35' E 014°06'1616.1
2017-Mar-28 13:33N 36°29' E 014°24'  
2017-Mar-21 01:32N 35°34' E 014°28'1614.9
2017-Mar-21 00:27N 35°37' E 014°08'9414.9
2017-Mar-20 18:10N 35°52' E 012°15'1015.5
2017-Mar-20 17:33N 35°54' E 012°03'1515.3
2017-Mar-20 16:33N 35°54' E 011°44'1515.0
2017-Mar-20 15:33N 35°59' E 011°27'1515.0
2017-Mar-20 14:33N 35°57' E 011°08'2511.4
2017-Mar-20 12:21N 35°50' E 010°39'0 0.0
2017-Mar-20 11:33N 35°50' E 010°39'  
Track history (hours):
 
Tides and Currents Weather Stations Pressure Air Temp Water Temp Dewpoint Dewpoint Depression Visibility Wind Speed Wind Dir Waves Ship Positions

Humboldt Bay

Last reported at 2017-Mar-30 00:29 UTC. Time now 2017-Mar-30 01:00 UTC.
Position N 37°07' E 003°37'.

Length 147 m; draft 6.2 m.

Type: Cargo ship. MMSI: 636013649.

Date/timePositionNaut miles runAvg speedWind from/ knotsBaromVisibWave heightAir tempDewpointWater temp
2017-Mar-30 00:29N 37°07' E 003°37'1415.0
2017-Mar-29 23:33N 37°09' E 003°55'1515.0
2017-Mar-29 22:33N 37°11' E 004°13'1915.1
2017-Mar-29 21:19N 37°14' E 004°36'1215.5
2017-Mar-29 20:33N 37°15' E 004°51'1915.6
2017-Mar-29 19:19N 37°20' E 005°15'38714.8
2017-Mar-28 17:13N 36°47' E 013°18'1014.8
2017-Mar-28 16:33N 36°43' E 013°30'1514.7
2017-Mar-28 15:31N 36°39' E 013°48'1515.2
2017-Mar-28 14:33N 36°35' E 014°06'1616.1
2017-Mar-28 13:33N 36°29' E 014°24'  
2017-Mar-21 01:32N 35°34' E 014°28'1614.9
2017-Mar-21 00:27N 35°37' E 014°08'9414.9
2017-Mar-20 18:10N 35°52' E 012°15'1015.5
2017-Mar-20 17:33N 35°54' E 012°03'1515.3
2017-Mar-20 16:33N 35°54' E 011°44'1515.0
2017-Mar-20 15:33N 35°59' E 011°27'1515.0
2017-Mar-20 14:33N 35°57' E 011°08'2511.4
2017-Mar-20 12:21N 35°50' E 010°39'0 0.0
2017-Mar-20 11:33N 35°50' E 010°39'  

Dump ship's entire track history